createdAt,value
2019-01-23T00:00:58.460Z,-5.63
2019-01-23T00:03:05.899Z,-5.68
2019-01-23T00:05:14.862Z,-5.69
2019-01-23T00:07:22.186Z,-5.73
2019-01-23T00:09:29.573Z,-5.73
2019-01-23T00:11:36.939Z,-5.81
2019-01-23T00:13:44.317Z,-5.74
2019-01-23T00:15:51.732Z,-5.83
2019-01-23T00:17:59.113Z,-5.77
2019-01-23T00:20:06.998Z,-5.84
2019-01-23T00:22:14.424Z,-5.83
2019-01-23T00:24:22.257Z,-5.77
2019-01-23T00:26:29.626Z,-5.73
2019-01-23T00:28:42.332Z,-5.71
2019-01-23T00:30:46.118Z,-5.73
2019-01-23T00:32:53.522Z,-5.69
2019-01-23T00:35:01.003Z,-5.67
2019-01-23T00:37:08.385Z,-5.61
2019-01-23T00:39:15.811Z,-5.61
2019-01-23T00:41:23.278Z,-5.60
2019-01-23T00:43:30.809Z,-5.58
2019-01-23T00:45:38.085Z,-5.49
2019-01-23T00:47:45.125Z,-5.48
2019-01-23T00:49:52.683Z,-5.48
2019-01-23T00:52:00.050Z,-5.45
2019-01-23T00:54:07.598Z,-5.42
2019-01-23T00:56:14.884Z,-5.42
2019-01-23T00:58:22.261Z,-5.43
2019-01-23T01:00:29.678Z,-5.40
2019-01-23T01:02:37.417Z,-5.35
2019-01-23T01:04:44.832Z,-5.35
2019-01-23T01:06:52.364Z,-5.34
2019-01-23T01:08:59.779Z,-5.33
2019-01-23T01:11:07.166Z,-5.31
2019-01-23T01:13:14.491Z,-5.27
2019-01-23T01:15:22.013Z,-5.23
2019-01-23T01:17:29.714Z,-5.22
2019-01-23T01:19:37.098Z,-5.19
2019-01-23T01:21:44.458Z,-5.22
2019-01-23T01:23:51.939Z,-5.18
2019-01-23T01:25:59.396Z,-5.22
2019-01-23T01:28:07.046Z,-5.20
2019-01-23T01:30:34.147Z,-5.19
2019-01-23T01:32:41.302Z,-5.17
2019-01-23T01:34:48.741Z,-5.16
2019-01-23T01:36:56.110Z,-5.19
2019-01-23T01:39:04.458Z,-5.13
2019-01-23T01:41:11.865Z,-5.09
2019-01-23T01:43:19.195Z,-5.10
2019-01-23T01:45:26.537Z,-5.12
2019-01-23T01:47:33.741Z,-5.11
2019-01-23T01:49:41.123Z,-5.08
2019-01-23T01:51:48.511Z,-5.06
2019-01-23T01:53:56.030Z,-5.03
2019-01-23T01:56:03.467Z,-5.03
2019-01-23T01:58:10.841Z,-5.03
2019-01-23T02:00:23.578Z,-4.99
2019-01-23T02:02:30.971Z,-4.96
2019-01-23T02:04:38.287Z,-4.96
2019-01-23T02:06:45.786Z,-4.90
2019-01-23T02:08:53.654Z,-4.89
2019-01-23T02:11:01.015Z,-4.89
2019-01-23T02:13:08.534Z,-4.92
2019-01-23T02:15:16.261Z,-4.90
2019-01-23T02:17:23.702Z,-4.90
2019-01-23T02:19:31.067Z,-4.98
2019-01-23T02:21:38.465Z,-4.92
2019-01-23T02:23:45.662Z,-4.88
2019-01-23T02:25:53.151Z,-4.91
2019-01-23T02:28:00.454Z,-4.93
2019-01-23T02:30:09.722Z,-4.90
2019-01-23T02:32:17.127Z,-4.91
2019-01-23T02:34:24.553Z,-4.96
2019-01-23T02:36:31.862Z,-4.89
2019-01-23T02:38:39.309Z,-4.84
2019-01-23T02:40:46.732Z,-4.88
2019-01-23T02:42:54.201Z,-4.87
2019-01-23T02:45:01.598Z,-4.86
2019-01-23T02:47:09.001Z,-4.85
2019-01-23T02:49:16.327Z,-4.86
2019-01-23T02:51:23.902Z,-4.87
2019-01-23T02:53:31.289Z,-4.87
2019-01-23T02:55:38.688Z,-4.87
2019-01-23T02:57:46.195Z,-4.85
2019-01-23T02:59:53.628Z,-4.86
2019-01-23T03:02:01.046Z,-4.84
2019-01-23T03:04:08.491Z,-4.88
2019-01-23T03:06:15.886Z,-4.84
2019-01-23T03:08:23.303Z,-4.82
2019-01-23T03:10:30.891Z,-4.88
2019-01-23T03:12:38.261Z,-4.88
2019-01-23T03:14:45.661Z,-4.85
2019-01-23T03:16:53.457Z,-4.84
2019-01-23T03:19:00.917Z,-4.85
2019-01-23T03:21:08.380Z,-4.82
2019-01-23T03:23:15.830Z,-4.86
2019-01-23T03:25:23.392Z,-4.85
2019-01-23T03:27:30.725Z,-4.88
2019-01-23T03:29:38.521Z,-4.82
2019-01-23T03:31:45.724Z,-4.86
2019-01-23T03:33:53.138Z,-4.83
2019-01-23T03:36:00.602Z,-4.80
2019-01-23T03:38:08.559Z,-4.81
2019-01-23T03:40:18.602Z,-4.83
2019-01-23T03:42:26.032Z,-4.78
2019-01-23T03:44:33.491Z,-4.83
2019-01-23T03:46:40.970Z,-4.76
2019-01-23T03:48:48.474Z,-4.82
2019-01-23T03:50:55.809Z,-4.80
2019-01-23T03:53:03.117Z,-4.75
2019-01-23T03:55:10.908Z,-4.76
2019-01-23T03:57:18.275Z,-4.76
2019-01-23T03:59:32.036Z,-4.80
2019-01-23T04:01:34.987Z,-4.76
2019-01-23T04:03:42.365Z,-4.73
2019-01-23T04:05:49.711Z,-4.68
2019-01-23T04:07:57.130Z,-4.73
2019-01-23T04:10:04.790Z,-4.73
2019-01-23T04:12:12.652Z,-4.70
2019-01-23T04:14:20.074Z,-4.64
2019-01-23T04:16:27.222Z,-4.74
2019-01-23T04:18:34.669Z,-4.73
2019-01-23T04:20:42.176Z,-4.70
2019-01-23T04:37:00.521Z,-4.72
2019-01-23T04:39:09.995Z,-4.74
2019-01-23T04:41:17.351Z,-4.71
2019-01-23T04:43:24.809Z,-4.73
2019-01-23T04:59:22.269Z,-4.67
2019-01-23T05:01:29.709Z,-4.70
2019-01-23T05:03:37.148Z,-4.63
2019-01-23T05:05:44.835Z,-4.67
2019-01-23T05:07:52.117Z,-4.70
2019-01-23T05:09:59.533Z,-4.71
2019-01-23T05:12:07.404Z,-4.62
2019-01-23T05:14:15.079Z,-4.65
2019-01-23T05:16:22.528Z,-4.64
2019-01-23T05:18:31.212Z,-4.66
2019-01-23T05:20:38.762Z,-4.64
2019-01-23T05:22:46.206Z,-4.64
2019-01-23T05:24:53.641Z,-4.65
2019-01-23T05:27:01.070Z,-4.63
2019-01-23T05:29:08.365Z,-4.64
2019-01-23T05:31:15.651Z,-4.64
2019-01-23T05:33:23.090Z,-4.67
2019-01-23T05:35:30.534Z,-4.67
2019-01-23T05:37:37.688Z,-4.66
2019-01-23T05:39:45.042Z,-4.62
2019-01-23T05:41:52.545Z,-4.65
2019-01-23T05:44:00.024Z,-4.63
2019-01-23T05:46:07.321Z,-4.67
2019-01-23T05:48:14.767Z,-4.66
2019-01-23T05:50:22.089Z,-4.69
2019-01-23T05:52:29.463Z,-4.67
2019-01-23T05:54:36.916Z,-4.66
2019-01-23T05:56:44.334Z,-4.65
2019-01-23T05:58:51.716Z,-4.63
2019-01-23T06:00:59.232Z,-4.62
2019-01-23T06:03:06.677Z,-4.66
2019-01-23T06:05:14.148Z,-4.66
2019-01-23T06:07:21.518Z,-4.67
2019-01-23T06:09:28.878Z,-4.67
2019-01-23T06:11:36.373Z,-4.63
2019-01-23T06:13:43.594Z,-4.64
2019-01-23T06:15:51.149Z,-4.64
2019-01-23T06:17:58.610Z,-4.66
2019-01-23T06:20:07.672Z,-4.65
2019-01-23T06:22:15.467Z,-4.62
2019-01-23T06:24:22.995Z,-4.61
2019-01-23T06:26:30.242Z,-4.58
2019-01-23T06:28:37.340Z,-4.64
2019-01-23T06:30:44.349Z,-4.62
2019-01-23T06:32:51.856Z,-4.66
2019-01-23T06:34:59.354Z,-4.59
2019-01-23T06:37:06.827Z,-4.64
2019-01-23T06:39:14.315Z,-4.59
2019-01-23T06:41:21.665Z,-4.62
2019-01-23T06:43:29.127Z,-4.59
2019-01-23T06:45:36.570Z,-4.63
2019-01-23T06:47:43.893Z,-4.59
2019-01-23T06:49:51.378Z,-4.65
2019-01-23T06:51:58.784Z,-4.63
2019-01-23T06:54:06.269Z,-4.60
2019-01-23T06:56:13.748Z,-4.72
2019-01-23T06:58:21.064Z,-4.70
2019-01-23T07:00:28.851Z,-4.67
2019-01-23T07:02:36.252Z,-4.68
2019-01-23T07:04:43.667Z,-4.70
2019-01-23T07:06:51.098Z,-4.65
2019-01-23T07:08:58.533Z,-4.70
2019-01-23T07:11:05.951Z,-4.73
2019-01-23T07:13:13.518Z,-4.70
2019-01-23T07:15:21.265Z,-4.66
2019-01-23T07:17:30.307Z,-4.68
2019-01-23T07:19:37.600Z,-4.68
2019-01-23T07:21:44.794Z,-4.72
2019-01-23T07:23:52.213Z,-4.69
2019-01-23T07:25:59.651Z,-4.69
2019-01-23T07:28:06.938Z,-4.68
2019-01-23T07:30:32.616Z,-4.62
2019-01-23T07:32:40.029Z,-4.59
2019-01-23T07:34:47.365Z,-4.54
2019-01-23T07:36:54.807Z,-4.57
2019-01-23T07:39:02.211Z,-4.54
2019-01-23T07:41:09.554Z,-4.53
2019-01-23T07:43:16.948Z,-4.52
2019-01-23T07:45:24.419Z,-4.55
2019-01-23T07:47:31.930Z,-4.55
2019-01-23T07:49:39.338Z,-4.55
2019-01-23T07:51:46.891Z,-4.53
2019-01-23T07:53:54.259Z,-4.59
2019-01-23T07:56:01.593Z,-4.57
2019-01-23T07:58:09.501Z,-4.60
2019-01-23T08:00:19.504Z,-4.50
2019-01-23T08:02:26.909Z,-4.50
2019-01-23T08:04:34.906Z,-4.48
2019-01-23T08:06:42.156Z,-4.46
2019-01-23T08:08:49.736Z,-4.40
2019-01-23T08:10:57.297Z,-4.46
2019-01-23T08:13:04.790Z,-4.37
2019-01-23T08:15:27.825Z,-4.36
2019-01-23T08:17:35.163Z,-4.37
2019-01-23T08:19:43.346Z,-4.33
2019-01-23T08:21:50.793Z,-4.28
2019-01-23T08:23:58.235Z,-4.25
2019-01-23T08:26:05.921Z,-4.21
2019-01-23T08:28:14.939Z,-4.15
2019-01-23T08:30:22.866Z,-4.14
2019-01-23T08:32:30.371Z,-4.17
2019-01-23T08:34:37.688Z,-4.15
2019-01-23T08:36:45.297Z,-4.09
2019-01-23T08:38:52.729Z,-4.09
2019-01-23T08:41:00.128Z,-4.06
2019-01-23T08:43:07.583Z,-4.08
2019-01-23T08:45:14.986Z,-4.19
2019-01-23T08:47:22.393Z,-4.03
2019-01-23T08:49:29.900Z,-4.12
2019-01-23T08:51:37.380Z,-4.12
2019-01-23T08:53:44.675Z,-4.07
2019-01-23T08:55:53.856Z,-4.03
2019-01-23T08:58:00.904Z,-4.08
2019-01-23T09:00:08.791Z,-4.08
2019-01-23T09:02:16.858Z,-4.11
2019-01-23T09:04:24.291Z,-4.18
2019-01-23T09:06:31.684Z,-4.18
2019-01-23T09:08:39.297Z,-4.11
2019-01-23T09:10:46.744Z,-4.07
2019-01-23T09:12:54.216Z,-4.09
2019-01-23T09:15:01.789Z,-4.04
2019-01-23T09:17:09.329Z,-4.09
2019-01-23T09:19:16.723Z,-4.07
2019-01-23T09:21:24.736Z,-4.00
2019-01-23T09:23:31.777Z,-3.97
2019-01-23T09:25:39.283Z,-3.94
2019-01-23T09:27:46.650Z,-3.93
2019-01-23T09:29:54.243Z,-3.90
2019-01-23T09:32:36.362Z,-3.91
2019-01-23T09:35:37.914Z,-3.93
2019-01-23T09:38:32.312Z,-3.91
2019-01-23T09:41:40.849Z,-3.93
2019-01-23T09:45:04.070Z,-3.93
2019-01-23T09:47:25.524Z,-3.94
2019-01-23T09:50:32.603Z,-3.84
2019-01-23T09:53:07.039Z,-3.79
2019-01-23T09:55:15.852Z,-3.82
2019-01-23T09:57:23.370Z,-3.83
2019-01-23T09:59:30.624Z,-3.86
2019-01-23T10:01:38.071Z,-3.88
2019-01-23T10:03:45.192Z,-3.93
2019-01-23T10:05:53.019Z,-3.88
2019-01-23T10:08:00.543Z,-3.89
2019-01-23T10:10:10.421Z,-3.88
2019-01-23T10:12:18.203Z,-3.89
2019-01-23T10:14:25.690Z,-3.85
2019-01-23T10:16:33.174Z,-3.85
2019-01-23T10:18:40.595Z,-3.88
2019-01-23T10:20:48.039Z,-3.89
2019-01-23T10:22:55.746Z,-3.89
2019-01-23T10:25:03.454Z,-3.89
2019-01-23T10:27:11.068Z,-3.87
2019-01-23T10:29:18.461Z,-3.88
2019-01-23T10:31:26.200Z,-3.86
2019-01-23T10:33:33.558Z,-3.83
2019-01-23T10:35:40.891Z,-3.84
2019-01-23T10:37:48.381Z,-3.87
2019-01-23T10:39:55.890Z,-3.86
2019-01-23T10:42:03.266Z,-3.80
2019-01-23T10:44:11.490Z,-3.81
2019-01-23T10:46:18.932Z,-3.83
2019-01-23T10:48:26.419Z,-3.81
2019-01-23T10:50:34.002Z,-3.77
2019-01-23T10:52:41.792Z,-3.73
2019-01-23T10:54:49.286Z,-3.68
2019-01-23T10:56:56.681Z,-3.68
2019-01-23T10:59:04.048Z,-3.67
2019-01-23T11:01:13.463Z,-3.66
2019-01-23T11:03:21.008Z,-3.66
2019-01-23T11:05:28.549Z,-3.67
2019-01-23T11:07:35.992Z,-3.70
2019-01-23T11:09:43.758Z,-3.64
2019-01-23T11:11:51.087Z,-3.65
2019-01-23T11:13:58.625Z,-3.65
2019-01-23T11:16:06.625Z,-3.68
2019-01-23T11:18:14.153Z,-3.65
2019-01-23T11:20:21.685Z,-3.67
2019-01-23T11:22:29.142Z,-3.73
2019-01-23T11:24:36.920Z,-3.66
2019-01-23T11:26:44.557Z,-3.65
2019-01-23T11:28:51.903Z,-3.60
2019-01-23T11:30:59.400Z,-3.57
2019-01-23T11:33:06.902Z,-3.58
2019-01-23T11:35:14.470Z,-3.51
2019-01-23T11:37:22.025Z,-3.51
2019-01-23T11:39:29.531Z,-3.50
2019-01-23T11:41:36.991Z,-3.49
2019-01-23T11:43:44.412Z,-3.55
2019-01-23T11:45:51.773Z,-3.51
2019-01-23T11:47:59.667Z,-3.48
2019-01-23T11:50:08.562Z,-3.44
2019-01-23T11:52:16.030Z,-3.49
2019-01-23T11:54:23.595Z,-3.51
2019-01-23T11:56:31.069Z,-3.42
2019-01-23T11:58:38.469Z,-3.34
2019-01-23T12:00:46.020Z,-3.36
2019-01-23T12:02:53.402Z,-3.34
2019-01-23T12:05:00.878Z,-3.35
2019-01-23T12:07:08.335Z,-3.38
2019-01-23T12:09:15.784Z,-3.50
2019-01-23T12:11:23.106Z,-3.48
2019-01-23T12:13:30.689Z,-3.51
2019-01-23T12:15:40.968Z,-3.47
2019-01-23T12:17:47.102Z,-3.47
2019-01-23T12:19:54.908Z,-3.44
2019-01-23T12:22:02.317Z,-3.47
2019-01-23T12:24:09.778Z,-3.45
2019-01-23T12:26:17.700Z,-3.41
2019-01-23T12:28:25.249Z,-3.44
2019-01-23T12:30:34.685Z,-3.45
2019-01-23T12:32:42.210Z,-3.42
2019-01-23T12:34:49.666Z,-3.45
2019-01-23T12:36:57.247Z,-3.41
2019-01-23T12:39:07.225Z,-3.44
2019-01-23T12:41:14.643Z,-3.45
2019-01-23T12:43:22.045Z,-3.43
2019-01-23T12:45:30.412Z,-3.42
2019-01-23T12:47:38.222Z,-3.36
2019-01-23T12:49:45.625Z,-3.34
2019-01-23T12:51:53.133Z,-3.35
2019-01-23T12:54:00.543Z,-3.35
2019-01-23T12:56:07.892Z,-3.34
2019-01-23T12:58:15.339Z,-3.37
2019-01-23T13:00:26.101Z,-3.43
2019-01-23T13:02:33.720Z,-3.41
2019-01-23T13:04:41.281Z,-3.41
2019-01-23T13:06:48.953Z,-3.41
2019-01-23T13:08:56.465Z,-3.42
2019-01-23T13:11:04.063Z,-3.40
2019-01-23T13:13:11.518Z,-3.33
2019-01-23T13:15:22.097Z,-3.27
2019-01-23T13:17:29.903Z,-3.23
2019-01-23T13:19:37.341Z,-3.19
2019-01-23T13:21:44.733Z,-3.15
2019-01-23T13:23:53.176Z,-3.18
2019-01-23T13:26:00.660Z,-3.18
2019-01-23T13:28:08.774Z,-3.17
2019-01-23T13:30:19.599Z,-3.23
2019-01-23T13:32:27.036Z,-3.23
2019-01-23T13:34:34.385Z,-3.21
2019-01-23T13:36:41.786Z,-3.20
2019-01-23T13:38:49.213Z,-3.22
2019-01-23T13:40:56.656Z,-3.24
2019-01-23T13:43:04.473Z,-3.27
2019-01-23T13:45:12.263Z,-3.26
2019-01-23T13:47:19.697Z,-3.25
2019-01-23T13:49:27.118Z,-3.24
2019-01-23T13:51:34.613Z,-3.32
2019-01-23T13:53:41.972Z,-3.30
2019-01-23T13:55:50.440Z,-3.34
2019-01-23T13:57:57.898Z,-3.37
2019-01-23T14:00:06.418Z,-3.37
2019-01-23T14:02:14.063Z,-3.49
2019-01-23T14:04:21.397Z,-3.55
2019-01-23T14:06:29.052Z,-3.50
2019-01-23T14:08:36.560Z,-3.50
2019-01-23T14:10:43.947Z,-3.53
2019-01-23T14:12:51.444Z,-3.59
2019-01-23T14:14:59.267Z,-3.58
2019-01-23T14:17:07.330Z,-3.62
2019-01-23T14:19:15.025Z,-3.67
2019-01-23T14:21:22.754Z,-3.67
2019-01-23T14:23:30.384Z,-3.64
2019-01-23T14:25:37.887Z,-3.59
2019-01-23T14:27:45.317Z,-3.62
2019-01-23T14:29:53.332Z,-3.66
2019-01-23T14:32:03.536Z,-3.72
2019-01-23T14:34:10.063Z,-3.74
2019-01-23T14:36:17.732Z,-3.75
2019-01-23T14:38:25.281Z,-3.78
2019-01-23T14:40:32.923Z,-3.76
2019-01-23T14:42:40.556Z,-3.80
2019-01-23T14:44:48.341Z,-3.84
2019-01-23T14:46:55.985Z,-3.83
2019-01-23T14:49:03.445Z,-3.88
2019-01-23T14:51:11.055Z,-3.93
2019-01-23T14:53:18.611Z,-3.91
2019-01-23T14:55:26.201Z,-3.96
2019-01-23T14:57:33.713Z,-3.95
2019-01-23T14:59:41.133Z,-4.02
2019-01-23T15:01:48.750Z,-4.04
2019-01-23T15:03:56.284Z,-4.07
2019-01-23T15:06:03.957Z,-4.12
2019-01-23T15:08:11.496Z,-4.12
2019-01-23T15:10:24.730Z,-4.19
2019-01-23T15:12:32.154Z,-4.17
2019-01-23T15:14:39.847Z,-4.20
2019-01-23T15:16:47.396Z,-4.30
2019-01-23T15:18:55.047Z,-4.31
2019-01-23T15:21:02.689Z,-4.29
2019-01-23T15:23:10.442Z,-4.33
2019-01-23T15:25:18.274Z,-4.36
2019-01-23T15:27:25.780Z,-4.35
2019-01-23T15:29:33.381Z,-4.37
2019-01-23T15:31:41.369Z,-4.40
2019-01-23T15:33:49.232Z,-4.46
2019-01-23T15:35:57.220Z,-4.47
2019-01-23T15:38:05.007Z,-4.52
2019-01-23T15:40:16.272Z,-4.42
2019-01-23T15:42:23.731Z,-4.51
2019-01-23T15:44:31.213Z,-4.57
2019-01-23T15:46:39.293Z,-4.49
2019-01-23T15:48:46.878Z,-4.55
2019-01-23T15:50:54.702Z,-4.55
2019-01-23T15:53:02.303Z,-4.63
2019-01-23T15:55:12.599Z,-4.61
2019-01-23T15:57:19.905Z,-4.66
2019-01-23T15:59:27.367Z,-4.64
2019-01-23T16:01:34.695Z,-4.68
2019-01-23T16:03:42.388Z,-4.66
2019-01-23T16:05:50.007Z,-4.66
2019-01-23T16:07:58.775Z,-4.71
2019-01-23T16:10:07.092Z,-4.73
2019-01-23T16:12:15.057Z,-4.66
2019-01-23T16:14:22.747Z,-4.73
2019-01-23T16:16:30.391Z,-4.73
2019-01-23T16:18:37.917Z,-4.80
2019-01-23T16:20:45.344Z,-4.77
2019-01-23T16:22:53.534Z,-4.85
2019-01-23T16:25:01.892Z,-4.84
2019-01-23T16:27:09.760Z,-4.88
2019-01-23T16:29:17.229Z,-4.99
2019-01-23T16:31:24.806Z,-4.87
2019-01-23T16:33:33.197Z,-4.84
2019-01-23T16:35:40.738Z,-4.90
2019-01-23T16:37:48.497Z,-4.96
2019-01-23T16:39:56.429Z,-4.99
2019-01-23T16:42:04.184Z,-5.03
2019-01-23T16:44:12.029Z,-5.09
2019-01-23T16:46:19.529Z,-4.97
2019-01-23T16:48:27.193Z,-5.07
2019-01-23T16:50:35.019Z,-5.08
2019-01-23T16:52:42.394Z,-5.07
2019-01-23T16:54:50.119Z,-5.05
2019-01-23T16:56:57.583Z,-5.17
2019-01-23T16:59:05.392Z,-5.15
2019-01-23T17:01:12.968Z,-5.19
2019-01-23T17:03:20.381Z,-5.19
2019-01-23T17:05:30.594Z,-5.21
2019-01-23T17:07:38.241Z,-5.25
2019-01-23T17:09:45.941Z,-5.20
2019-01-23T17:11:53.443Z,-5.25
2019-01-23T17:14:01.672Z,-5.25
2019-01-23T17:16:09.269Z,-5.29
2019-01-23T17:18:45.301Z,-5.31
2019-01-23T17:20:52.800Z,-5.38
2019-01-23T17:23:00.236Z,-5.39
2019-01-23T17:25:09.392Z,-5.42
2019-01-23T17:27:16.997Z,-5.42
2019-01-23T17:29:30.681Z,-5.43
2019-01-23T17:31:34.209Z,-5.45
2019-01-23T17:33:41.556Z,-5.50
2019-01-23T17:35:49.501Z,-5.48
2019-01-23T17:37:57.051Z,-5.54
2019-01-23T17:40:04.951Z,-5.52
2019-01-23T17:42:12.643Z,-5.61
2019-01-23T17:44:20.315Z,-5.52
2019-01-23T17:46:27.961Z,-5.59
2019-01-23T17:48:35.543Z,-5.59
2019-01-23T17:50:43.741Z,-5.71
2019-01-23T17:52:53.322Z,-5.69
2019-01-23T17:55:02.264Z,-5.66
2019-01-23T17:57:10.709Z,-5.63
2019-01-23T17:59:19.065Z,-5.71
2019-01-23T18:01:27.037Z,-5.75
2019-01-23T18:03:34.480Z,-5.70
2019-01-23T18:05:41.903Z,-5.76
2019-01-23T18:07:49.590Z,-5.85
2019-01-23T18:09:56.939Z,-5.85
2019-01-23T18:12:04.576Z,-5.75
2019-01-23T18:14:12.402Z,-5.83
2019-01-23T18:16:19.844Z,-5.78
2019-01-23T18:18:27.694Z,-5.80
2019-01-23T18:20:35.265Z,-5.88
2019-01-23T18:22:43.369Z,-5.79
2019-01-23T18:24:51.045Z,-5.83
2019-01-23T18:26:58.956Z,-5.84
2019-01-23T18:29:06.600Z,-5.81
2019-01-23T18:31:48.013Z,-5.86
2019-01-23T18:35:10.635Z,-5.82
2019-01-23T18:38:22.745Z,-5.71
2019-01-23T18:41:35.115Z,-5.81
2019-01-23T18:44:04.448Z,-5.82
2019-01-23T18:47:07.123Z,-5.82
2019-01-23T18:50:34.459Z,-5.81
2019-01-23T18:52:42.187Z,-5.72
2019-01-23T18:54:49.643Z,-5.67
2019-01-23T18:56:57.119Z,-5.73
2019-01-23T18:59:04.564Z,-5.75
2019-01-23T19:01:12.076Z,-5.72
2019-01-23T19:03:19.633Z,-5.66
2019-01-23T19:05:27.130Z,-5.71
2019-01-23T19:07:34.463Z,-5.64
2019-01-23T19:09:42.042Z,-5.69
2019-01-23T19:11:49.702Z,-5.74
2019-01-23T19:13:57.843Z,-5.70
2019-01-23T19:16:06.082Z,-5.66
2019-01-23T19:18:13.356Z,-5.69
2019-01-23T19:20:22.166Z,-5.64
2019-01-23T19:22:29.913Z,-5.65
2019-01-23T19:24:37.755Z,-5.69
2019-01-23T19:26:45.412Z,-5.66
2019-01-23T19:28:52.998Z,-5.65
2019-01-23T19:31:01.004Z,-5.60
2019-01-23T19:33:13.585Z,-5.59
2019-01-23T19:35:21.172Z,-5.59
2019-01-23T19:37:29.747Z,-5.61
2019-01-23T19:39:37.977Z,-5.64
2019-01-23T19:41:45.613Z,-5.65
2019-01-23T19:43:53.339Z,-5.72
2019-01-23T19:46:00.916Z,-5.69
2019-01-23T19:48:08.721Z,-5.73
2019-01-23T19:50:16.371Z,-5.71
2019-01-23T19:52:23.675Z,-5.72
2019-01-23T19:54:30.856Z,-5.79
2019-01-23T19:56:38.693Z,-5.75
2019-01-23T19:58:46.250Z,-5.82
2019-01-23T20:00:54.730Z,-5.76
2019-01-23T20:03:02.734Z,-5.78
2019-01-23T20:05:12.962Z,-5.73
2019-01-23T20:07:20.644Z,-5.72
2019-01-23T20:09:28.551Z,-5.73
2019-01-23T20:11:36.053Z,-5.69
2019-01-23T20:13:43.666Z,-5.66
2019-01-23T20:15:51.113Z,-5.73
2019-01-23T20:18:03.508Z,-5.73
2019-01-23T20:20:12.330Z,-5.73
2019-01-23T20:22:20.037Z,-5.75
2019-01-23T20:24:27.648Z,-5.78
2019-01-23T20:26:35.392Z,-5.76
2019-01-23T20:28:42.839Z,-5.75
2019-01-23T20:30:50.394Z,-5.83
2019-01-23T20:32:58.080Z,-5.80
2019-01-23T20:35:05.531Z,-5.81
2019-01-23T20:37:13.546Z,-5.82
2019-01-23T20:39:21.159Z,-5.82
2019-01-23T20:41:29.834Z,-5.80
2019-01-23T20:43:37.165Z,-5.74
2019-01-23T20:45:44.894Z,-5.77
2019-01-23T20:47:52.548Z,-5.74
2019-01-23T20:50:00.044Z,-5.76
2019-01-23T20:52:07.937Z,-5.76
2019-01-23T20:54:15.324Z,-5.71
2019-01-23T20:56:23.032Z,-5.68
2019-01-23T20:58:30.680Z,-5.68
2019-01-23T21:00:38.735Z,-5.70
2019-01-23T21:03:02.677Z,-5.72
2019-01-23T21:05:12.412Z,-5.70
2019-01-23T21:07:22.869Z,-5.76
2019-01-23T21:09:33.727Z,-5.70
2019-01-23T21:11:45.625Z,-5.72
2019-01-23T21:13:53.920Z,-5.71
2019-01-23T21:16:07.298Z,-5.67
2019-01-23T21:18:19.472Z,-5.66
2019-01-23T21:20:35.089Z,-5.68
2019-01-23T21:22:46.089Z,-5.65
2019-01-23T21:25:00.752Z,-5.70
2019-01-23T21:27:09.382Z,-5.72
2019-01-23T21:29:16.892Z,-5.70
2019-01-23T21:31:31.436Z,-5.76
2019-01-23T21:33:43.811Z,-5.76
2019-01-23T21:35:51.180Z,-5.68
2019-01-23T21:38:06.035Z,-5.68
2019-01-23T21:40:20.379Z,-5.65
2019-01-23T21:42:58.130Z,-5.68
2019-01-23T21:45:06.396Z,-5.71
2019-01-23T21:47:15.927Z,-5.64
2019-01-23T21:49:31.030Z,-5.70
2019-01-23T21:51:40.078Z,-5.71
2019-01-23T21:53:54.692Z,-5.72
2019-01-23T21:56:08.837Z,-5.67
2019-01-23T21:58:17.776Z,-5.68
2019-01-23T22:00:40.441Z,-5.71
2019-01-23T22:02:58.423Z,-5.67
2019-01-23T22:05:11.483Z,-5.70
2019-01-23T22:07:22.106Z,-5.69
2019-01-23T22:09:32.422Z,-5.65
2019-01-23T22:11:43.608Z,-5.69
2019-01-23T22:13:50.572Z,-5.71
2019-01-23T22:15:59.330Z,-5.70
2019-01-23T22:18:10.370Z,-5.72
2019-01-23T22:20:27.094Z,-5.67
2019-01-23T22:22:34.579Z,-5.66
2019-01-23T22:24:53.384Z,-5.70
2019-01-23T22:27:06.271Z,-5.72
2019-01-23T22:29:22.620Z,-5.71
2019-01-23T22:31:51.862Z,-5.72
2019-01-23T22:34:31.354Z,-5.69
2019-01-23T22:36:41.039Z,-5.67
2019-01-23T22:38:57.061Z,-5.69
2019-01-23T22:41:04.753Z,-5.75
2019-01-23T22:43:21.330Z,-5.72
2019-01-23T22:45:34.684Z,-5.77
2019-01-23T22:47:51.896Z,-5.80
2019-01-23T22:50:02.455Z,-5.74
2019-01-23T22:55:09.316Z,-5.72
2019-01-23T22:57:25.841Z,-5.73
2019-01-23T22:59:35.302Z,-5.72
2019-01-23T23:01:43.789Z,-5.74
2019-01-23T23:03:52.641Z,-5.75
2019-01-23T23:06:09.869Z,-5.72
2019-01-23T23:08:18.208Z,-5.72
2019-01-23T23:10:30.686Z,-5.70
2019-01-23T23:12:39.473Z,-5.65
2019-01-23T23:14:47.105Z,-5.72
2019-01-23T23:16:54.537Z,-5.66
2019-01-23T23:19:02.106Z,-5.68
2019-01-23T23:21:09.563Z,-5.59
2019-01-23T23:23:17.008Z,-5.63
2019-01-23T23:25:24.859Z,-5.65
2019-01-23T23:27:39.211Z,-5.65
2019-01-23T23:29:41.770Z,-5.65
2019-01-23T23:31:49.188Z,-5.60
2019-01-23T23:33:56.648Z,-5.64
2019-01-23T23:36:04.095Z,-5.64
2019-01-23T23:38:11.692Z,-5.57
2019-01-23T23:40:19.033Z,-5.54
2019-01-23T23:42:26.362Z,-5.55
2019-01-23T23:44:34.438Z,-5.55
2019-01-23T23:46:41.762Z,-5.57
2019-01-23T23:48:49.177Z,-5.63
2019-01-23T23:50:56.725Z,-5.66
2019-01-23T23:53:04.211Z,-5.62
2019-01-23T23:55:12.126Z,-5.55
2019-01-23T23:57:19.700Z,-5.64
2019-01-23T23:59:27.235Z,-5.56
